createdAt,value
2022-10-11T00:01:14.014Z,38.00
2022-10-11T00:03:42.763Z,35.00
2022-10-11T00:06:11.470Z,41.00
2022-10-11T00:08:40.021Z,37.33
2022-10-11T00:11:10.523Z,38.00
2022-10-11T00:13:39.142Z,40.67
2022-10-11T00:16:11.693Z,40.00
2022-10-11T00:18:40.983Z,31.33
2022-10-11T00:21:15.109Z,39.67
2022-10-11T00:23:44.494Z,31.67
2022-10-11T00:26:14.988Z,36.67
2022-10-11T00:28:43.751Z,37.00
2022-10-11T00:31:16.665Z,42.33
2022-10-11T00:33:46.061Z,39.00
2022-10-11T00:36:17.353Z,30.33
2022-10-11T00:38:47.013Z,36.00
2022-10-11T00:41:17.547Z,39.67
2022-10-11T00:43:47.014Z,46.25
2022-10-11T00:46:18.503Z,40.33
2022-10-11T00:49:19.928Z,39.00
2022-10-11T00:51:56.283Z,37.00
2022-10-11T00:54:31.021Z,34.00
2022-10-11T00:57:07.691Z,43.00
2022-10-11T00:59:43.381Z,53.00
2022-10-11T01:02:15.060Z,56.00
2022-10-11T01:04:45.104Z,37.25
2022-10-11T01:07:14.193Z,36.00
2022-10-11T01:09:43.692Z,41.00
2022-10-11T01:12:27.624Z,41.25
2022-10-11T01:15:53.396Z,52.33
2022-10-11T01:18:49.651Z,53.33
2022-10-11T01:21:43.327Z,54.67
2022-10-11T01:25:12.625Z,46.67
2022-10-11T01:28:08.802Z,44.33
2022-10-11T01:30:39.412Z,53.33
2022-10-11T01:33:25.818Z,43.67
2022-10-11T01:36:00.281Z,55.00
2022-10-11T01:38:49.765Z,52.67
2022-10-11T01:41:31.972Z,60.33
2022-10-11T01:44:04.711Z,62.33
2022-10-11T01:46:35.141Z,61.00
2022-10-11T01:49:05.649Z,54.00
2022-10-11T01:51:47.347Z,38.00
2022-10-11T01:55:10.357Z,36.33
2022-10-11T01:58:07.305Z,36.33
2022-10-11T02:01:14.596Z,33.33
2022-10-11T02:04:40.983Z,29.00
2022-10-11T02:07:57.695Z,41.00
2022-10-11T02:11:01.895Z,38.67
2022-10-11T02:13:59.027Z,125.00
2022-10-11T02:16:42.837Z,81.67
2022-10-11T02:19:19.030Z,76.33
2022-10-11T02:21:58.313Z,88.00
2022-10-11T02:24:40.234Z,88.67
2022-10-11T02:27:12.285Z,90.00
2022-10-11T02:29:45.199Z,79.67
2022-10-11T02:32:17.550Z,71.33
2022-10-11T02:35:00.988Z,60.00
2022-10-11T02:37:52.400Z,68.00
2022-10-11T02:40:32.816Z,49.00
2022-10-11T02:43:13.334Z,60.67
2022-10-11T02:45:58.302Z,70.33
2022-10-11T02:48:29.537Z,63.00
2022-10-11T02:50:58.782Z,52.00
2022-10-11T02:53:28.798Z,39.00
2022-10-11T02:55:57.954Z,38.50
2022-10-11T02:58:27.419Z,37.67
2022-10-11T03:00:56.048Z,28.67
2022-10-11T03:03:24.648Z,31.50
2022-10-11T03:06:01.376Z,29.00
2022-10-11T03:08:29.467Z,25.50
2022-10-11T03:10:58.296Z,22.00
2022-10-11T03:13:27.120Z,24.50
2022-10-11T03:16:03.348Z,24.00
2022-10-11T03:18:32.600Z,25.00
2022-10-11T03:21:00.294Z,19.50
2022-10-11T03:23:29.053Z,20.00
2022-10-11T03:25:56.809Z,28.50
2022-10-11T03:28:25.470Z,24.00
2022-10-11T03:30:54.336Z,26.50
2022-10-11T03:33:23.061Z,28.00
2022-10-11T03:35:51.658Z,30.00
2022-10-11T03:38:23.385Z,32.00
2022-10-11T03:40:52.350Z,31.00
2022-10-11T03:43:21.758Z,28.67
2022-10-11T03:45:50.348Z,28.50
2022-10-11T03:48:19.816Z,28.00
2022-10-11T03:50:48.607Z,21.00
2022-10-11T03:53:17.258Z,25.50
2022-10-11T03:55:46.061Z,22.00
2022-10-11T03:58:14.648Z,22.50
2022-10-11T04:00:43.236Z,21.00
2022-10-11T04:03:12.137Z,22.00
2022-10-11T04:05:40.769Z,25.00
2022-10-11T04:08:12.081Z,22.67
2022-10-11T04:10:41.637Z,30.00
2022-10-11T04:13:12.192Z,24.50
2022-10-11T04:15:41.600Z,28.00
2022-10-11T04:18:10.955Z,21.00
2022-10-11T04:20:39.057Z,26.00
2022-10-11T04:23:08.156Z,27.00
2022-10-11T04:25:39.951Z,22.00
2022-10-11T04:28:09.434Z,22.00
2022-10-11T04:30:38.056Z,21.00
2022-10-11T04:33:06.672Z,21.00
2022-10-11T04:35:35.256Z,23.00
2022-10-11T04:38:03.900Z,21.50
2022-10-11T04:40:31.897Z,20.50
2022-10-11T04:43:00.715Z,28.00
2022-10-11T04:45:29.423Z,23.00
2022-10-11T04:47:58.614Z,23.00
2022-10-11T04:50:27.415Z,25.00
2022-10-11T04:52:56.014Z,24.50
2022-10-11T04:55:24.739Z,22.00
2022-10-11T04:57:54.253Z,34.33
2022-10-11T05:00:23.862Z,54.33
2022-10-11T05:02:54.009Z,51.00
2022-10-11T05:05:23.473Z,48.67
2022-10-11T05:07:52.141Z,44.00
2022-10-11T05:10:21.687Z,46.67
2022-10-11T05:12:50.348Z,48.33
2022-10-11T05:15:20.143Z,39.00
2022-10-11T05:17:48.834Z,28.00
2022-10-11T05:20:17.754Z,26.50
2022-10-11T05:22:45.513Z,20.00
2022-10-11T05:25:14.144Z,21.00
2022-10-11T05:27:43.564Z,25.00
2022-10-11T05:30:12.621Z,24.00
2022-10-11T05:32:42.055Z,32.33
2022-10-11T05:35:10.698Z,43.67
2022-10-11T05:37:39.328Z,29.33
2022-10-11T05:40:09.260Z,28.00
2022-10-11T05:42:38.770Z,31.00
2022-10-11T05:45:08.502Z,20.00
2022-10-11T05:47:37.133Z,23.50
2022-10-11T05:50:06.524Z,21.50
2022-10-11T05:52:35.100Z,23.00
2022-10-11T05:55:04.392Z,20.00
2022-10-11T05:57:32.986Z,29.33
2022-10-11T06:00:02.697Z,37.67
2022-10-11T06:02:31.305Z,32.33
2022-10-11T06:04:59.961Z,28.00
2022-10-11T06:07:28.493Z,26.33
2022-10-11T06:09:57.149Z,24.50
2022-10-11T06:12:25.837Z,30.50
2022-10-11T06:14:55.484Z,30.33
2022-10-11T06:17:24.217Z,35.33
2022-10-11T06:19:52.787Z,29.00
2022-10-11T06:22:21.424Z,28.00
2022-10-11T06:24:50.065Z,27.00
2022-10-11T06:27:18.675Z,21.50
2022-10-11T06:29:47.307Z,24.00
2022-10-11T06:32:16.285Z,25.00
2022-10-11T06:34:45.699Z,27.33
2022-10-11T06:37:15.458Z,28.67
2022-10-11T06:39:44.113Z,36.67
2022-10-11T06:42:13.051Z,33.67
2022-10-11T06:44:42.641Z,31.67
2022-10-11T06:47:11.352Z,37.67
2022-10-11T06:49:39.970Z,30.33
2022-10-11T06:52:10.229Z,32.67
2022-10-11T06:54:43.869Z,41.67
2022-10-11T06:57:14.125Z,33.00
2022-10-11T06:59:42.676Z,25.00
2022-10-11T07:02:12.062Z,29.33
2022-10-11T07:04:40.589Z,22.33
2022-10-11T07:07:09.074Z,21.00
2022-10-11T07:09:37.919Z,24.00
2022-10-11T07:12:07.569Z,23.50
2022-10-11T07:14:36.162Z,23.00
2022-10-11T07:17:05.635Z,25.33
2022-10-11T07:19:34.324Z,23.67
2022-10-11T07:22:02.918Z,28.00
2022-10-11T07:24:31.497Z,26.00
2022-10-11T07:27:00.842Z,29.33
2022-10-11T07:29:29.272Z,23.00
2022-10-11T07:31:57.930Z,29.00
2022-10-11T07:34:26.599Z,21.00
2022-10-11T07:36:55.305Z,21.33
2022-10-11T07:39:23.858Z,25.67
2022-10-11T07:41:53.219Z,27.00
2022-10-11T07:44:21.990Z,27.00
2022-10-11T07:46:51.417Z,23.00
2022-10-11T07:49:19.977Z,23.00
2022-10-11T07:51:48.486Z,25.33
2022-10-11T07:54:17.007Z,27.67
2022-10-11T07:56:45.594Z,26.33
2022-10-11T07:59:14.959Z,23.33
2022-10-11T08:01:44.442Z,28.33
2022-10-11T08:04:13.142Z,27.67
2022-10-11T08:06:42.468Z,30.00
2022-10-11T08:09:12.263Z,31.33
2022-10-11T08:11:40.810Z,35.33
2022-10-11T08:14:11.672Z,28.00
2022-10-11T08:16:40.870Z,28.67
2022-10-11T08:19:10.822Z,26.00
2022-10-11T08:21:39.386Z,23.33
2022-10-11T08:24:08.279Z,15.00
2022-10-11T08:26:36.998Z,27.00
2022-10-11T08:29:06.935Z,24.33
2022-10-11T08:31:36.137Z,28.33
2022-10-11T08:34:05.541Z,25.33
2022-10-11T08:36:34.191Z,29.67
2022-10-11T08:39:02.784Z,31.67
2022-10-11T08:41:53.655Z,25.67
2022-10-11T08:45:08.990Z,34.33
2022-10-11T08:47:44.919Z,23.50
2022-10-11T08:50:22.884Z,29.00
2022-10-11T08:53:04.921Z,27.33
2022-10-11T08:55:51.641Z,26.67
2022-10-11T08:58:39.556Z,28.67
2022-10-11T09:01:21.101Z,34.67
2022-10-11T09:03:50.945Z,30.33
2022-10-11T09:07:04.708Z,32.25
2022-10-11T09:10:13.809Z,27.67
2022-10-11T09:13:18.857Z,37.00
2022-10-11T09:16:09.504Z,30.00
2022-10-11T09:19:15.857Z,34.00
2022-10-11T09:22:26.824Z,28.50
2022-10-11T09:25:19.568Z,29.67
2022-10-11T09:28:40.959Z,26.67
2022-10-11T09:31:12.286Z,33.33
2022-10-11T09:33:52.736Z,28.00
2022-10-11T09:36:47.337Z,29.00
2022-10-11T09:39:35.780Z,25.67
2022-10-11T09:42:08.674Z,30.00
2022-10-11T09:44:49.087Z,29.00
2022-10-11T09:47:36.835Z,31.33
2022-10-11T09:50:25.881Z,22.67
2022-10-11T09:53:00.138Z,25.00
2022-10-11T09:55:54.478Z,23.00
2022-10-11T09:58:30.243Z,23.00
2022-10-11T10:01:10.415Z,28.67
2022-10-11T10:03:44.502Z,37.00
2022-10-11T10:06:29.672Z,31.00
2022-10-11T10:09:31.134Z,30.67
2022-10-11T10:11:59.714Z,26.67
2022-10-11T10:14:31.269Z,28.00
2022-10-11T10:17:18.887Z,26.67
2022-10-11T10:19:54.558Z,31.50
2022-10-11T10:22:29.976Z,27.00
2022-10-11T10:25:03.390Z,26.00
2022-10-11T10:27:33.549Z,29.00
2022-10-11T10:30:07.851Z,29.00
2022-10-11T10:33:05.018Z,31.00
2022-10-11T10:35:55.579Z,23.00
2022-10-11T10:38:48.656Z,31.50
2022-10-11T10:41:20.796Z,32.67
2022-10-11T10:43:57.675Z,29.75
2022-10-11T10:46:54.158Z,29.33
2022-10-11T10:53:43.496Z,32.20
2022-10-11T10:56:45.687Z,24.33
2022-10-11T10:59:45.397Z,17.33
2022-10-11T11:02:50.069Z,28.00
2022-10-11T11:05:58.979Z,28.33
2022-10-11T11:09:15.408Z,24.00
2022-10-11T11:12:01.481Z,27.00
2022-10-11T11:14:59.658Z,25.67
2022-10-11T11:18:10.276Z,28.67
2022-10-11T11:21:20.391Z,32.33
2022-10-11T11:24:06.779Z,28.67
2022-10-11T11:27:33.745Z,28.00
2022-10-11T11:30:12.783Z,27.67
2022-10-11T11:32:52.517Z,27.67
2022-10-11T11:35:46.283Z,28.33
2022-10-11T11:38:25.923Z,40.33
2022-10-11T11:41:06.232Z,27.33
2022-10-11T11:43:45.539Z,32.67
2022-10-11T11:46:24.842Z,29.33
2022-10-11T11:49:03.867Z,30.75
2022-10-11T11:51:43.372Z,27.75
2022-10-11T11:55:01.487Z,28.00
2022-10-11T11:58:15.668Z,25.33
2022-10-11T12:01:26.489Z,24.00
2022-10-11T12:04:45.726Z,25.67
2022-10-11T12:07:22.750Z,27.00
2022-10-11T12:10:25.448Z,28.67
2022-10-11T12:13:32.166Z,25.33
2022-10-11T12:16:13.260Z,28.00
2022-10-11T12:19:02.039Z,28.00
2022-10-11T12:21:42.087Z,24.00
2022-10-11T12:24:24.650Z,25.00
2022-10-11T12:26:59.693Z,31.50
2022-10-11T12:29:49.557Z,28.00
2022-10-11T12:32:38.792Z,22.00
2022-10-11T12:35:32.295Z,25.00
2022-10-11T12:38:40.247Z,24.33
2022-10-11T12:41:14.624Z,25.33
2022-10-11T12:43:48.962Z,28.00
2022-10-11T12:46:29.809Z,24.67
2022-10-11T12:49:13.262Z,24.67
2022-10-11T12:52:01.760Z,29.67
2022-10-11T12:54:48.216Z,28.67
2022-10-11T12:58:19.253Z,23.00
2022-10-11T13:00:56.426Z,24.33
2022-10-11T13:03:41.698Z,29.00
2022-10-11T13:06:14.940Z,30.00
2022-10-11T13:08:54.876Z,31.33
2022-10-11T13:11:39.391Z,30.33
2022-10-11T13:14:18.231Z,27.00
2022-10-11T13:17:04.109Z,30.50
2022-10-11T13:19:37.388Z,28.67
2022-10-11T13:22:22.079Z,26.33
2022-10-11T13:24:50.965Z,27.00
2022-10-11T13:27:27.296Z,124.67
2022-10-11T13:30:02.395Z,29.33
2022-10-11T13:32:32.900Z,32.00
2022-10-11T13:35:19.705Z,28.00
2022-10-11T13:37:52.117Z,23.00
2022-10-11T13:40:23.160Z,28.75
2022-10-11T13:42:54.195Z,37.00
2022-10-11T13:45:27.695Z,33.00
2022-10-11T13:47:56.918Z,24.00
2022-10-11T13:50:35.501Z,31.00
2022-10-11T13:53:10.121Z,29.33
2022-10-11T13:56:04.390Z,27.50
2022-10-11T13:59:00.772Z,29.00
2022-10-11T14:01:40.779Z,24.67
2022-10-11T14:04:18.606Z,34.67
2022-10-11T14:07:02.491Z,32.67
2022-10-11T14:09:38.180Z,30.00
2022-10-11T14:12:40.505Z,29.33
2022-10-11T14:15:57.903Z,26.33
2022-10-11T14:18:51.923Z,33.50
2022-10-11T14:21:35.748Z,33.50
2022-10-11T14:24:12.318Z,34.33
2022-10-11T14:26:56.450Z,30.33
2022-10-11T14:29:39.052Z,30.33
2022-10-11T14:32:17.945Z,32.00
2022-10-11T14:34:48.974Z,28.67
2022-10-11T14:37:19.657Z,29.33
2022-10-11T14:39:50.359Z,36.00
2022-10-11T14:42:19.711Z,28.33
2022-10-11T14:44:48.424Z,29.67
2022-10-11T14:47:18.365Z,31.50
2022-10-11T14:49:47.020Z,35.67
2022-10-11T14:52:15.604Z,31.33
2022-10-11T14:54:44.225Z,40.00
2022-10-11T14:57:13.771Z,32.67
2022-10-11T14:59:43.148Z,30.67
2022-10-11T15:02:12.549Z,30.00
2022-10-11T15:04:41.136Z,32.33
2022-10-11T15:07:13.438Z,32.00
2022-10-11T15:09:42.343Z,38.33
2022-10-11T15:12:10.907Z,28.00
2022-10-11T15:14:39.424Z,37.00
2022-10-11T15:17:08.260Z,50.00
2022-10-11T15:19:37.042Z,33.33
2022-10-11T15:22:06.386Z,38.67
2022-10-11T15:24:34.971Z,39.00
2022-10-11T15:27:04.509Z,35.33
2022-10-11T15:29:33.127Z,37.00
2022-10-11T15:32:01.739Z,33.33
2022-10-11T15:34:30.611Z,35.00
2022-10-11T15:36:59.398Z,34.67
2022-10-11T15:39:32.755Z,38.75
2022-10-11T15:42:01.398Z,35.00
2022-10-11T15:44:29.989Z,43.67
2022-10-11T15:46:58.594Z,44.33
2022-10-11T15:49:28.030Z,46.00
2022-10-11T15:51:56.616Z,48.67
2022-10-11T15:54:26.069Z,49.67
2022-10-11T15:56:54.641Z,51.33
2022-10-11T15:59:24.061Z,54.33
2022-10-11T16:01:53.007Z,57.67
2022-10-11T16:04:23.248Z,60.25
2022-10-11T16:06:51.977Z,53.00
2022-10-11T16:09:29.051Z,53.33
2022-10-11T16:11:59.228Z,54.33
2022-10-11T16:14:27.992Z,51.33
2022-10-11T16:17:00.166Z,50.00
2022-10-11T16:19:28.840Z,50.33
2022-10-11T16:21:58.204Z,50.67
2022-10-11T16:24:27.473Z,51.67
2022-10-11T16:29:34.801Z,65.25
2022-10-11T16:32:03.400Z,57.00
2022-10-11T16:34:36.641Z,61.67
2022-10-11T16:37:05.271Z,65.67
2022-10-11T16:39:35.334Z,82.00
2022-10-11T16:42:03.114Z,76.50
2022-10-11T16:44:32.955Z,78.33
2022-10-11T16:47:01.676Z,91.50
2022-10-11T16:49:44.567Z,94.00
2022-10-11T16:52:21.745Z,106.00
2022-10-11T16:54:58.935Z,117.00
2022-10-11T17:03:18.460Z,174.00
2022-10-11T17:05:48.283Z,162.00
2022-10-11T17:08:20.030Z,167.75
2022-10-11T17:10:57.890Z,189.00
2022-10-11T17:13:26.072Z,191.00
2022-10-11T17:15:55.662Z,181.00
2022-10-11T17:18:27.217Z,185.25
2022-10-11T17:21:08.915Z,179.00
2022-10-11T17:23:41.831Z,186.13
2022-10-11T17:26:24.999Z,163.00
2022-10-11T17:28:59.017Z,184.00
2022-10-11T17:31:32.948Z,185.00
2022-10-11T17:34:02.551Z,195.50
2022-10-11T17:36:34.906Z,214.14
2022-10-11T17:39:15.208Z,182.38
2022-10-11T17:44:19.303Z,130.50
2022-10-11T17:46:49.078Z,121.33
2022-10-11T17:51:59.405Z,135.00
2022-10-11T17:54:27.390Z,121.50
2022-10-11T17:56:56.924Z,113.00
2022-10-11T17:59:27.782Z,105.50
2022-10-11T18:01:59.576Z,114.00
2022-10-11T18:04:30.150Z,114.00
2022-10-11T18:06:59.742Z,102.33
2022-10-11T18:09:27.660Z,115.50
2022-10-11T18:11:55.538Z,123.00
2022-10-11T18:14:25.119Z,139.67
2022-10-11T18:16:52.980Z,122.50
2022-10-11T18:19:24.382Z,168.75
2022-10-11T18:21:55.760Z,173.63
2022-10-11T18:24:27.304Z,163.63
2022-10-11T18:26:56.853Z,140.33
2022-10-11T18:29:26.597Z,114.67
2022-10-11T18:31:56.325Z,114.00
2022-10-11T18:34:25.857Z,98.75
2022-10-11T18:36:55.511Z,90.00
2022-10-11T18:39:23.362Z,78.00
2022-10-11T18:41:52.055Z,67.33
2022-10-11T18:44:21.687Z,90.00
2022-10-11T18:46:51.290Z,74.25
2022-10-11T18:49:20.713Z,79.25
2022-10-11T18:51:49.270Z,78.00
2022-10-11T18:54:21.200Z,111.00
2022-10-11T18:56:51.130Z,106.25
2022-10-11T18:59:20.361Z,120.50
2022-10-11T19:01:52.581Z,101.50
2022-10-11T19:04:21.152Z,102.50
2022-10-11T19:06:49.938Z,101.00
2022-10-11T19:09:26.156Z,109.50
2022-10-11T19:11:56.781Z,114.50
2022-10-11T19:14:30.241Z,109.50
2022-10-11T19:16:58.889Z,116.00
2022-10-11T19:19:29.797Z,125.00
2022-10-11T19:21:57.966Z,116.00
2022-10-11T19:24:29.196Z,112.50
2022-10-11T19:27:02.494Z,108.25
2022-10-11T19:29:32.561Z,125.50
2022-10-11T19:32:03.786Z,113.33
2022-10-11T19:34:33.362Z,113.33
2022-10-11T19:37:01.402Z,112.00
2022-10-11T19:39:32.636Z,116.00
2022-10-11T19:42:01.321Z,104.00
2022-10-11T19:44:34.469Z,88.67
